Time;durP1;ratioP1;P1;durP2;ratioP2;P2;SDS_P1;SDS_P2;PMS_P1;PMS_P2;Temp;Humidity;BMP_temperature;BMP_pressure;BME280_temperature;BME280_humidity;BME280_pressure;Samples;Min_cycle;Max_cycle;Signal;HPM_P1;HPM_P2
2021/06/11 00:00:00;;;;;;;2.47;1.90;;;14.60;99.90;14.60;97087.00;;;;5031949;28;20229;-86
2021/06/11 00:02:48;;;;;;;2.47;2.27;;;14.70;99.90;14.70;97083.00;;;;5032552;28;20213;-88
2021/06/11 00:05:39;;;;;;;2.10;1.90;;;14.70;99.90;14.80;97080.00;;;;5030120;28;20228;-87
2021/06/11 00:08:29;;;;;;;2.47;2.07;;;14.80;99.90;14.70;97075.00;;;;5030847;28;20202;-87
2021/06/11 00:11:17;;;;;;;3.33;2.00;;;14.90;99.90;15.00;97070.00;;;;5029859;28;20213;-87
2021/06/11 00:14:06;;;;;;;2.43;2.23;;;14.90;99.90;14.90;97073.00;;;;5031947;28;20216;-87
2021/06/11 00:16:54;;;;;;;2.53;2.33;;;15.00;99.90;14.80;97064.00;;;;5021688;28;20220;-86
2021/06/11 00:19:43;;;;;;;3.47;2.03;;;14.90;99.90;14.70;97065.00;;;;5031055;28;20228;-87
2021/06/11 00:22:32;;;;;;;2.53;2.10;;;15.10;99.90;14.40;97059.00;;;;5029841;28;20193;-87
2021/06/11 00:25:24;;;;;;;1.90;1.80;;;15.00;99.90;14.20;97056.00;;;;5031962;28;20800;-87
2021/06/11 00:28:13;;;;;;;2.97;1.67;;;14.80;99.90;14.30;97058.00;;;;5019560;28;20205;-87
2021/06/11 00:31:01;;;;;;;3.30;2.10;;;15.00;99.90;14.30;97063.00;;;;5029977;28;20671;-88
2021/06/11 00:33:50;;;;;;;3.63;1.97;;;14.70;99.90;14.00;97063.00;;;;5030695;28;20667;-87
2021/06/11 00:36:38;;;;;;;2.10;1.90;;;14.60;99.90;13.70;97058.00;;;;5030099;28;20201;-88
2021/06/11 00:39:28;;;;;;;1.90;1.70;;;14.50;99.90;13.70;97057.00;;;;5029851;28;20217;-86
2021/06/11 00:42:16;;;;;;;2.03;1.83;;;14.30;99.90;13.90;97050.00;;;;5030283;28;20210;-88
2021/06/11 00:45:07;;;;;;;2.03;1.93;;;14.30;99.90;14.10;97050.00;;;;5030910;28;20197;-87
2021/06/11 00:47:56;;;;;;;1.50;1.40;;;14.30;99.90;14.20;97049.00;;;;5029578;28;20275;-88
2021/06/11 00:50:44;;;;;;;3.33;1.77;;;14.40;99.90;14.10;97043.00;;;;5029033;28;20234;-87
2021/06/11 00:53:33;;;;;;;3.43;1.90;;;14.40;99.90;14.20;97044.00;;;;5030222;28;20217;-87
2021/06/11 00:56:23;;;;;;;1.90;1.77;;;14.40;99.90;14.30;97046.00;;;;5030833;28;20213;-87
2021/06/11 00:59:12;;;;;;;2.17;1.50;;;14.50;99.90;14.20;97046.00;;;;5030989;28;20241;-87
2021/06/11 01:02:00;;;;;;;2.13;1.80;;;14.50;99.90;14.20;97034.00;;;;5029718;28;20201;-87
2021/06/11 01:04:50;;;;;;;1.60;1.50;;;14.50;99.90;14.20;97037.00;;;;5030591;28;20209;-87
2021/06/11 01:07:41;;;;;;;1.80;1.70;;;14.10;99.90;14.20;97030.00;;;;5030077;28;20213;-86
2021/06/11 01:10:30;;;;;;;21.50;2.43;;;14.50;99.90;14.20;97030.00;;;;5029569;28;20229;-87
2021/06/11 01:13:20;;;;;;;3.53;1.50;;;14.50;99.90;14.30;97040.00;;;;5030308;28;20206;-87
2021/06/11 01:16:08;;;;;;;1.80;1.70;;;14.50;99.90;14.20;97027.00;;;;5029132;28;20205;-87
2021/06/11 01:18:57;;;;;;;1.87;1.70;;;14.60;99.90;14.10;97023.00;;;;5028764;28;20217;-86
2021/06/11 01:21:54;;;;;;;2.33;1.60;;;14.50;99.90;14.10;97024.00;;;;5029092;28;20201;-86
2021/06/11 01:25:00;;;;;;;3.00;1.77;;;14.50;99.90;14.10;97019.00;;;;5028843;28;20202;-87
2021/06/11 01:27:50;;;;;;;2.10;1.90;;;14.50;99.90;14.30;97020.00;;;;5030456;28;20208;-86
2021/06/11 01:30:40;;;;;;;2.60;1.97;;;14.50;99.90;14.30;97020.00;;;;5029292;28;20221;-87
2021/06/11 01:33:32;;;;;;;1.90;1.80;;;14.60;99.90;14.30;97031.00;;;;5029020;28;20209;-86
2021/06/11 01:36:25;;;;;;;2.00;1.80;;;14.60;99.90;14.20;97026.00;;;;5028895;28;20205;-87
2021/06/11 01:39:17;;;;;;;2.50;1.90;;;14.50;99.90;14.20;97020.00;;;;5028568;28;20228;-87
2021/06/11 01:42:07;;;;;;;2.80;1.67;;;14.50;99.90;14.10;97017.00;;;;5027932;28;20201;-86
2021/06/11 01:44:58;;;;;;;1.70;1.60;;;14.50;99.90;13.90;97006.00;;;;5030583;28;20200;-87
2021/06/11 01:47:52;;;;;;;3.03;2.17;;;14.50;99.90;13.90;97012.00;;;;5018869;28;20213;-86
2021/06/11 01:50:42;;;;;;;4.70;1.77;;;14.40;99.90;13.90;97014.00;;;;5029129;28;20604;-86
2021/06/11 01:53:31;;;;;;;2.50;1.90;;;14.40;99.90;13.90;97006.00;;;;5029519;28;20214;-86
2021/06/11 01:56:20;;;;;;;2.73;2.17;;;14.40;99.90;13.70;97006.00;;;;5028719;28;20213;-87
2021/06/11 01:59:09;;;;;;;3.50;2.00;;;14.80;99.90;13.90;97006.00;;;;5029937;28;20415;-87
2021/06/11 02:02:01;;;;;;;2.03;1.73;;;14.20;99.90;13.90;97001.00;;;;5028679;28;20197;-86
2021/06/11 02:04:50;;;;;;;2.10;1.90;;;14.30;99.90;13.80;97009.00;;;;5027683;28;20201;-86
2021/06/11 02:07:39;;;;;;;2.87;1.90;;;14.30;99.90;13.80;97000.00;;;;5028902;28;20225;-87
2021/06/11 02:10:28;;;;;;;2.23;1.87;;;14.20;99.90;13.80;96996.00;;;;5028227;28;20225;-87
2021/06/11 02:13:16;;;;;;;1.90;1.60;;;14.20;99.90;13.80;96983.00;;;;5030250;28;20210;-86
2021/06/11 02:16:06;;;;;;;3.10;2.33;;;14.20;99.90;13.90;96976.00;;;;5029381;28;20213;-86
2021/06/11 02:19:00;;;;;;;2.20;2.00;;;14.20;99.90;14.00;96978.00;;;;5028288;28;20221;-86
2021/06/11 02:21:49;;;;;;;16.87;2.90;;;14.20;99.90;14.00;96989.00;;;;5017656;28;20201;-87
2021/06/11 02:24:39;;;;;;;2.27;2.07;;;14.30;99.90;13.90;96979.00;;;;5029560;28;20206;-86
2021/06/11 02:27:27;;;;;;;1.70;1.60;;;14.30;99.90;13.90;96977.00;;;;5030575;28;20217;-86
2021/06/11 02:30:19;;;;;;;2.30;1.63;;;14.30;99.90;13.80;96984.00;;;;5031315;28;20217;-85
2021/06/11 02:33:08;;;;;;;2.80;1.80;;;14.30;99.90;13.80;96977.00;;;;5033247;28;20845;-87
2021/06/11 02:35:58;;;;;;;2.20;2.03;;;14.20;99.90;13.70;96983.00;;;;5033438;28;20193;-86
2021/06/11 02:38:47;;;;;;;1.90;1.80;;;14.20;99.90;13.60;96982.00;;;;5032154;28;20222;-87
2021/06/11 02:41:41;;;;;;;2.23;1.70;;;14.10;99.90;13.70;96972.00;;;;5032855;28;20712;-87
2021/06/11 02:44:35;;;;;;;2.03;1.70;;;14.10;99.90;13.80;96979.00;;;;5033034;28;20201;-87
2021/06/11 02:47:29;;;;;;;3.97;1.57;;;14.10;99.90;13.70;96981.00;;;;5032786;28;20251;-87
2021/06/11 02:50:21;;;;;;;2.10;1.90;;;14.10;99.90;13.80;96963.00;;;;5031502;28;20225;-86
2021/06/11 02:53:15;;;;;;;2.53;1.50;;;14.10;99.90;13.90;96966.00;;;;5034224;28;20205;-86
2021/06/11 02:56:11;;;;;;;2.13;1.93;;;14.20;99.90;13.90;96971.00;;;;5024687;28;20213;-85
2021/06/11 02:59:04;;;;;;;1.83;1.73;;;14.20;99.90;13.80;96970.00;;;;5033800;28;20883;-87
2021/06/11 03:01:59;;;;;;;2.43;1.70;;;14.20;99.90;13.70;96978.00;;;;5031416;28;20285;-87
2021/06/11 03:04:49;;;;;;;2.10;1.90;;;14.20;99.90;13.60;96974.00;;;;5032561;28;20198;-87
2021/06/11 03:07:40;;;;;;;2.20;2.00;;;14.10;99.90;13.60;96975.00;;;;5033160;28;20769;-86
2021/06/11 03:10:31;;;;;;;2.53;2.30;;;14.10;99.90;13.60;96976.00;;;;5032571;28;20225;-86
2021/06/11 03:13:21;;;;;;;2.40;2.20;;;14.10;99.90;13.70;96984.00;;;;5039371;28;20205;-86
2021/06/11 03:16:10;;;;;;;3.17;2.20;;;14.10;99.90;13.80;96977.00;;;;5035128;28;21063;-86
2021/06/11 03:19:03;;;;;;;4.63;3.77;;;14.10;99.90;13.90;96973.00;;;;5036308;28;20810;-87
2021/06/11 03:21:58;;;;;;;2.10;1.90;;;14.10;99.90;13.80;96974.00;;;;5036155;28;20940;-87
2021/06/11 03:24:54;;;;;;;3.33;2.17;;;14.20;99.90;13.60;96976.00;;;;5038062;28;20219;-86
2021/06/11 03:27:51;;;;;;;4.23;2.70;;;14.10;99.90;13.30;96977.00;;;;5033348;28;20225;-87
2021/06/11 03:30:46;;;;;;;2.60;2.40;;;14.00;99.90;13.40;96978.00;;;;5033478;28;20621;-86
2021/06/11 03:33:39;;;;;;;3.37;2.93;;;13.90;99.90;13.50;96974.00;;;;5039484;28;20689;-86
2021/06/11 03:36:31;;;;;;;3.87;2.67;;;13.90;99.90;13.60;96974.00;;;;5024283;28;20209;-88
2021/06/11 03:39:24;;;;;;;1.80;1.70;;;13.90;99.90;13.70;96975.00;;;;5034336;28;20228;-87
2021/06/11 03:42:14;;;;;;;2.83;2.63;;;13.90;99.90;13.70;96978.00;;;;5031165;28;20208;-87
2021/06/11 03:45:06;;;;;;;2.93;2.40;;;14.00;99.90;13.80;96986.00;;;;5032076;28;20209;-87
2021/06/11 03:47:57;;;;;;;2.57;2.30;;;14.10;99.90;13.80;96981.00;;;;5022257;28;20663;-87
2021/06/11 03:50:52;;;;;;;4.53;2.27;;;14.10;99.90;13.80;96984.00;;;;5031481;28;20204;-86
2021/06/11 03:53:42;;;;;;;2.57;2.37;;;14.10;99.90;13.90;96984.00;;;;5031625;28;20732;-86
2021/06/11 03:56:33;;;;;;;3.40;2.33;;;14.10;99.90;13.90;96981.00;;;;5034247;28;20212;-86
2021/06/11 03:59:24;;;;;;;4.30;1.90;;;14.20;99.90;13.80;96984.00;;;;5034011;28;20777;-86
2021/06/11 04:02:16;;;;;;;3.17;2.23;;;14.20;99.90;13.90;96989.00;;;;5033572;28;20666;-87
2021/06/11 04:05:06;;;;;;;2.30;2.10;;;14.20;99.90;13.90;96988.00;;;;5032539;28;20213;-88
2021/06/11 04:07:57;;;;;;;3.13;2.80;;;14.20;99.90;13.90;96981.00;;;;5032509;28;20225;-87
2021/06/11 04:10:57;;;;;;;2.00;1.90;;;14.20;99.90;13.80;96986.00;;;;5032053;28;20717;-86
2021/06/11 04:13:51;;;;;;;3.17;2.20;;;14.30;99.90;13.80;96980.00;;;;5031640;28;20197;-85
2021/06/11 04:16:45;;;;;;;3.73;2.87;;;14.30;99.90;13.80;96990.00;;;;5041684;28;20197;-87
2021/06/11 04:19:45;;;;;;;4.90;3.03;;;14.30;99.90;13.90;96983.00;;;;5028193;28;20603;-86
2021/06/11 04:22:41;;;;;;;4.73;2.70;;;14.30;99.90;13.70;96979.00;;;;5035347;28;20595;-85
2021/06/11 04:25:34;;;;;;;2.57;2.30;;;14.30;99.90;13.80;96990.00;;;;5045397;28;20200;-85
2021/06/11 04:28:24;;;;;;;2.60;2.40;;;14.20;99.90;13.90;96983.00;;;;5023306;28;20282;-86
2021/06/11 04:31:13;;;;;;;2.40;2.20;;;14.30;99.90;14.00;96990.00;;;;5037296;28;20201;-87
2021/06/11 04:34:01;;;;;;;2.20;2.10;;;14.30;99.90;14.10;96991.00;;;;5037870;28;20204;-85
2021/06/11 04:36:52;;;;;;;2.37;2.17;;;14.40;99.90;14.30;96990.00;;;;5037283;28;20210;-86
2021/06/11 04:39:40;;;;;;;2.97;2.37;;;14.50;99.90;14.40;96996.00;;;;5024791;28;20229;-85
2021/06/11 04:42:29;;;;;;;3.23;2.17;;;14.50;99.90;14.40;97004.00;;;;5036332;28;20209;-87
2021/06/11 04:45:17;;;;;;;2.47;2.27;;;14.60;99.90;14.40;96992.00;;;;5036691;28;20218;-88
2021/06/11 04:48:07;;;;;;;2.90;2.20;;;14.70;99.90;14.50;96990.00;;;;5032439;28;20244;-87
2021/06/11 04:50:55;;;;;;;5.20;3.03;;;14.80;99.90;14.50;96983.00;;;;5032680;28;20239;-87
2021/06/11 04:53:45;;;;;;;6.37;2.13;;;14.80;99.90;14.50;96993.00;;;;5034121;28;20212;-88
2021/06/11 04:56:33;;;;;;;2.50;2.30;;;14.90;99.90;14.70;96987.00;;;;5037197;28;20209;-87
2021/06/11 04:59:21;;;;;;;4.03;2.50;;;15.00;99.90;14.90;97002.00;;;;5037238;28;20720;-87
2021/06/11 05:02:10;;;;;;;2.70;2.50;;;15.00;99.90;14.90;97003.00;;;;5031596;28;20215;-88
2021/06/11 05:04:58;;;;;;;3.37;2.70;;;15.10;99.90;15.00;96999.00;;;;5030769;28;20612;-86
2021/06/11 05:07:47;;;;;;;2.73;2.30;;;15.20;99.90;15.00;97003.00;;;;5031030;28;20727;-87
2021/06/11 05:10:38;;;;;;;2.53;2.30;;;15.30;99.90;15.20;96990.00;;;;5029807;28;20229;-88
2021/06/11 05:13:26;;;;;;;3.33;2.77;;;15.40;99.90;15.60;96991.00;;;;5029826;28;20690;-87
2021/06/11 05:16:15;;;;;;;2.13;2.00;;;15.50;99.90;16.00;96981.00;;;;5028539;28;20198;-86
2021/06/11 05:19:03;;;;;;;2.30;2.20;;;15.70;99.90;16.50;96990.00;;;;5029204;28;20237;-87
2021/06/11 05:21:55;;;;;;;3.03;2.73;;;16.00;99.90;16.80;97000.00;;;;5039578;28;20200;-87
2021/06/11 05:24:43;;;;;;;3.37;2.20;;;16.30;99.90;16.80;96988.00;;;;5030253;28;20197;-88
2021/06/11 05:27:36;;;;;;;2.37;2.23;;;16.60;99.90;16.60;96985.00;;;;5029195;28;20519;-86
2021/06/11 05:30:26;;;;;;;2.80;2.13;;;16.70;99.90;16.40;96997.00;;;;5026261;28;20233;-87
2021/06/11 05:33:14;;;;;;;2.27;2.10;;;16.80;99.90;16.50;97008.00;;;;5016710;28;20209;-86
2021/06/11 05:36:03;;;;;;;2.83;2.17;;;16.70;99.90;16.80;96996.00;;;;5028503;28;20197;-87
2021/06/11 05:38:51;;;;;;;2.57;2.07;;;16.80;99.90;17.00;96990.00;;;;5028766;28;20233;-86
2021/06/11 05:41:40;;;;;;;2.50;2.30;;;17.00;99.90;17.50;96992.00;;;;5029017;28;20223;-86
2021/06/11 05:44:29;;;;;;;2.53;2.33;;;17.20;99.90;17.80;96981.00;;;;5029105;28;20204;-86
2021/06/11 05:47:18;;;;;;;4.80;2.60;;;17.40;99.90;18.40;97004.00;;;;5028014;28;20229;-86
2021/06/11 05:50:08;;;;;;;2.97;2.60;;;17.70;99.90;18.60;97007.00;;;;5028636;28;20733;-86
2021/06/11 05:52:57;;;;;;;2.40;2.20;;;18.10;99.90;18.70;97003.00;;;;5049463;28;20215;-86
2021/06/11 05:55:46;;;;;;;2.97;2.77;;;18.30;99.90;18.90;97007.00;;;;5029167;28;20205;-87
2021/06/11 05:58:35;;;;;;;2.63;2.43;;;18.50;99.90;19.00;97010.00;;;;5028234;28;20536;-86
2021/06/11 06:01:24;;;;;;;3.13;2.30;;;18.70;99.90;18.90;97012.00;;;;5027421;28;20205;-87
2021/06/11 06:04:13;;;;;;;2.73;2.40;;;18.80;99.90;18.90;97013.00;;;;5037040;28;20255;-87
2021/06/11 06:07:01;;;;;;;1.90;1.80;;;18.90;99.90;19.10;97015.00;;;;5040634;28;20232;-86
2021/06/11 06:09:49;;;;;;;2.37;2.10;;;19.00;99.90;19.30;97014.00;;;;5028581;28;20240;-86
2021/06/11 06:12:38;;;;;;;2.60;1.83;;;19.10;99.90;19.30;97012.00;;;;5033169;28;20201;-87
2021/06/11 06:15:26;;;;;;;2.53;2.30;;;19.20;99.90;19.30;97022.00;;;;5032888;28;20209;-86
2021/06/11 06:18:16;;;;;;;3.13;2.13;;;19.30;99.90;19.40;97020.00;;;;5033398;28;20209;-86
2021/06/11 06:21:05;;;;;;;3.40;2.30;;;19.40;99.90;19.40;97025.00;;;;5031569;28;20214;-87
2021/06/11 06:23:53;;;;;;;2.23;2.03;;;19.40;99.90;19.50;97018.00;;;;5031706;28;20205;-87
2021/06/11 06:26:42;;;;;;;2.50;2.30;;;19.50;99.90;19.50;97020.00;;;;5030859;28;20202;-87
2021/06/11 06:29:30;;;;;;;2.40;2.20;;;19.50;99.90;19.50;97026.00;;;;5030410;28;20240;-86
2021/06/11 06:32:18;;;;;;;3.77;2.03;;;19.60;99.90;19.70;97029.00;;;;5032021;28;20589;-86
2021/06/11 06:35:13;;;;;;;2.13;2.03;;;19.60;99.90;20.10;97002.00;;;;5030531;28;20209;-87
2021/06/11 06:38:01;;;;;;;2.60;2.40;;;19.80;99.90;20.70;97000.00;;;;5033125;28;20422;-87
2021/06/11 06:40:57;;;;;;;6.60;3.20;;;20.00;99.90;20.80;96999.00;;;;5036203;28;20216;-87
2021/06/11 06:43:45;;;;;;;2.37;2.20;;;20.30;99.90;21.30;96998.00;;;;5031723;28;20208;-87
2021/06/11 06:46:36;;;;;;;2.60;2.10;;;20.70;99.90;21.60;96988.00;;;;5034319;28;20671;-87
2021/06/11 06:49:27;;;;;;;2.53;2.10;;;21.00;99.90;21.90;96990.00;;;;5035177;28;20701;-87
2021/06/11 06:52:19;;;;;;;5.00;2.33;;;22.40;99.90;22.00;96993.00;;;;5033605;28;20217;-87
2021/06/11 06:55:09;;;;;;;3.63;2.57;;;21.50;99.90;22.30;96997.00;;;;5037010;28;20699;-86
2021/06/11 06:57:58;;;;;;;2.73;2.30;;;21.80;99.90;22.30;96985.00;;;;5044303;28;20200;-87
2021/06/11 07:00:46;;;;;;;2.43;2.23;;;22.00;99.90;22.40;96991.00;;;;5024399;28;20714;-87
2021/06/11 07:03:36;;;;;;;2.40;2.20;;;22.10;99.90;22.50;96990.00;;;;5033739;28;20209;-86
2021/06/11 07:06:25;;;;;;;2.47;2.27;;;22.20;99.90;22.50;96990.00;;;;5036567;28;20197;-85
2021/06/11 07:09:15;;;;;;;2.20;2.03;;;22.40;99.90;22.50;96990.00;;;;5037545;28;20233;-86
2021/06/11 07:12:05;;;;;;;2.03;1.93;;;22.50;99.90;22.60;96988.00;;;;5038071;28;20212;-85
2021/06/11 07:14:53;;;;;;;2.33;2.13;;;22.50;99.90;22.80;96987.00;;;;5035875;28;20240;-86
2021/06/11 07:17:42;;;;;;;2.80;2.60;;;22.60;99.90;23.00;96985.00;;;;5037287;28;20214;-85
2021/06/11 07:20:30;;;;;;;2.83;2.40;;;22.70;99.90;23.10;96983.00;;;;5037093;28;20748;-86
2021/06/11 07:23:19;;;;;;;2.23;2.13;;;22.80;99.90;23.20;96991.00;;;;5039188;28;20591;-87
2021/06/11 07:26:09;;;;;;;2.60;2.07;;;23.00;99.90;23.30;96982.00;;;;5039486;28;20201;-85
2021/06/11 07:28:57;;;;;;;2.60;2.27;;;23.10;99.90;23.30;96985.00;;;;5037463;28;20237;-85
2021/06/11 07:31:46;;;;;;;3.70;2.23;;;23.20;99.90;23.20;97005.00;;;;5026739;28;20213;-86
2021/06/11 07:34:34;;;;;;;2.57;2.37;;;23.30;99.00;23.20;97004.00;;;;5036974;28;20205;-87
2021/06/11 07:37:23;;;;;;;2.43;2.23;;;23.30;99.00;23.20;97006.00;;;;5035679;28;20213;-86
2021/06/11 07:40:13;;;;;;;3.87;2.30;;;23.30;99.60;22.70;96996.00;;;;5034012;28;20732;-86
2021/06/11 07:43:03;;;;;;;4.07;2.60;;;23.10;97.30;23.10;96971.00;;;;5036716;28;20209;-85
2021/06/11 07:45:52;;;;;;;2.43;2.30;;;23.10;97.90;23.60;96978.00;;;;5035929;28;20210;-86
2021/06/11 07:48:41;;;;;;;3.13;2.53;;;23.20;98.90;23.40;96999.00;;;;5032063;28;20228;-85
2021/06/11 07:51:30;;;;;;;3.83;2.87;;;23.30;98.20;22.90;96984.00;;;;5034082;28;20197;-85
2021/06/11 07:54:19;;;;;;;3.83;2.50;;;23.20;96.50;23.10;96980.00;;;;5035581;28;20228;-85
2021/06/11 07:57:10;;;;;;;3.00;2.80;;;23.10;95.80;23.20;97008.00;;;;5033833;28;20209;-85
2021/06/11 07:59:59;;;;;;;2.63;2.43;;;23.10;95.90;22.90;96976.00;;;;5033120;28;20217;-86
2021/06/11 08:02:48;;;;;;;4.47;2.67;;;23.10;95.00;23.40;96976.00;;;;5035009;28;20233;-86
2021/06/11 08:05:39;;;;;;;3.00;2.70;;;23.20;95.20;23.80;96981.00;;;;5035489;28;20711;-85
2021/06/11 08:08:27;;;;;;;2.43;2.23;;;23.40;94.20;24.10;96971.00;;;;5034091;28;20232;-86
2021/06/11 08:11:16;;;;;;;3.67;2.50;;;23.60;93.00;24.60;97005.00;;;;5032022;28;20228;-85
2021/06/11 08:14:04;;;;;;;2.80;2.60;;;23.90;91.60;23.70;97004.00;;;;5035476;28;20212;-84
2021/06/11 08:16:54;;;;;;;2.70;2.50;;;23.90;88.50;24.00;96975.00;;;;5035185;28;20692;-85
2021/06/11 08:19:42;;;;;;;2.53;2.33;;;23.90;87.00;24.60;96985.00;;;;5035276;28;20240;-86
2021/06/11 08:22:30;;;;;;;3.63;2.47;;;24.10;89.20;24.60;96974.00;;;;5034728;28;20198;-85
2021/06/11 08:25:22;;;;;;;3.83;2.13;;;24.30;85.30;25.30;96976.00;;;;5046191;28;20201;-87
2021/06/11 08:28:11;;;;;;;2.97;2.67;;;24.60;86.20;25.60;96974.00;;;;5029598;28;20236;-87
2021/06/11 08:31:01;;;;;;;2.73;2.53;;;25.00;82.70;25.90;96979.00;;;;5044758;28;20211;-85
2021/06/11 08:33:50;;;;;;;3.30;3.00;;;25.30;80.90;25.90;96967.00;;;;5040769;28;20685;-86
2021/06/11 08:36:39;;;;;;;3.13;2.67;;;25.50;77.40;25.70;96988.00;;;;5031010;28;20234;-86
2021/06/11 08:39:27;;;;;;;3.57;2.50;;;25.60;74.20;26.00;96978.00;;;;5021144;28;20223;-84
2021/06/11 08:42:16;;;;;;;2.60;2.40;;;25.70;74.70;26.30;96977.00;;;;5029610;28;20203;-88
2021/06/11 08:45:08;;;;;;;3.20;2.67;;;25.90;73.90;26.60;96983.00;;;;5030480;28;20206;-86
2021/06/11 08:47:58;;;;;;;3.70;2.30;;;26.00;73.00;27.00;96978.00;;;;5035994;28;20320;-86
2021/06/11 08:50:48;;;;;;;2.47;2.27;;;26.30;73.70;27.30;96983.00;;;;5022919;28;20237;-85
2021/06/11 08:53:38;;;;;;;2.60;2.40;;;26.70;72.30;27.00;96978.00;;;;5031742;28;20199;-85
2021/06/11 08:56:26;;;;;;;3.30;2.40;;;26.80;70.70;26.50;96983.00;;;;5044059;28;20199;-88
2021/06/11 08:59:17;;;;;;;4.20;2.70;;;26.40;68.10;25.60;97006.00;;;;5017746;28;20235;-87
2021/06/11 09:02:06;;;;;;;2.30;2.17;;;26.60;63.90;25.40;97010.00;;;;5029343;28;20676;-86
2021/06/11 09:04:57;;;;;;;2.73;2.53;;;26.20;67.00;25.40;97022.00;;;;5028306;28;20226;-86
2021/06/11 09:07:51;;;;;;;2.30;2.10;;;25.90;67.70;25.40;96976.00;;;;5028501;28;20213;-88
2021/06/11 09:10:39;;;;;;;2.80;2.47;;;25.70;68.00;26.10;96991.00;;;;5028827;28;20211;-86
2021/06/11 09:13:29;;;;;;;3.33;3.03;;;25.80;69.60;24.20;97013.00;;;;5028994;28;20204;-86
2021/06/11 09:16:20;;;;;;;2.80;2.53;;;25.40;65.80;23.50;97011.00;;;;5028564;28;20204;-86
2021/06/11 09:19:19;;;;;;;3.50;2.63;;;24.70;69.90;22.70;97014.00;;;;5029311;28;20258;-86
2021/06/11 09:22:07;;;;;;;3.60;2.67;;;24.10;75.40;22.90;97001.00;;;;5028482;28;20315;-85
2021/06/11 09:24:59;;;;;;;3.23;2.63;;;23.60;81.60;22.90;96960.00;;;;5029721;28;20212;-86
2021/06/11 09:27:51;;;;;;;3.10;2.80;;;23.50;79.10;23.80;96963.00;;;;5035952;28;20580;-86
2021/06/11 09:30:52;;;;;;;3.47;2.50;;;23.60;76.30;23.80;96961.00;;;;5028328;28;20228;-86
2021/06/11 09:33:43;;;;;;;2.47;2.30;;;23.90;74.40;24.10;96968.00;;;;5024472;28;20204;-86
2021/06/11 09:36:31;;;;;;;2.27;2.10;;;23.90;75.20;24.10;96951.00;;;;5027798;28;20213;-86
2021/06/11 09:39:20;;;;;;;2.90;2.70;;;24.20;68.50;24.20;96934.00;;;;5027595;28;20228;-86
2021/06/11 09:42:12;;;;;;;2.97;2.77;;;24.30;67.10;24.20;96970.00;;;;5024864;28;20224;-86
2021/06/11 09:45:03;;;;;;;3.17;2.87;;;24.40;72.50;24.00;96982.00;;;;5026953;28;20217;-87
2021/06/11 09:47:52;;;;;;;2.37;2.17;;;24.30;74.40;23.20;96988.00;;;;5025451;28;20201;-85
2021/06/11 09:50:40;;;;;;;2.40;2.20;;;24.00;73.30;23.30;96993.00;;;;5026490;28;20224;-86
2021/06/11 09:53:30;;;;;;;2.47;2.13;;;23.80;71.50;24.20;96932.00;;;;5024023;28;20197;-87
2021/06/11 09:56:23;;;;;;;2.40;2.20;;;23.90;71.40;25.20;96929.00;;;;5026505;28;20204;-87
2021/06/11 09:59:42;;;;;;;2.93;2.70;;;24.30;64.90;26.40;96921.00;;;;5027869;28;20221;-87
2021/06/11 10:02:32;;;;;;;2.63;2.43;;;24.90;66.00;27.20;96922.00;;;;5018484;28;20667;-86
2021/06/11 10:05:20;;;;;;;2.47;2.27;;;25.60;66.80;26.40;96919.00;;;;5027763;28;20199;-86
2021/06/11 10:08:09;;;;;;;2.27;1.70;;;26.20;59.40;27.40;96913.00;;;;5029568;28;20223;-86
2021/06/11 10:11:01;;;;;;;3.50;2.57;;;26.60;59.50;28.30;96909.00;;;;5027353;28;20202;-85
2021/06/11 10:13:50;;;;;;;1.83;1.73;;;27.10;60.30;28.40;96913.00;;;;5027834;28;20281;-86
2021/06/11 10:16:42;;;;;;;1.93;1.73;;;27.60;58.10;27.50;96960.00;;;;5027251;28;20245;-87
2021/06/11 10:19:31;;;;;;;1.77;1.67;;;27.70;56.40;27.70;96899.00;;;;5028043;28;20230;-87
2021/06/11 10:22:19;;;;;;;1.73;1.60;;;27.10;54.80;29.00;96886.00;;;;5027079;28;20211;-86
2021/06/11 10:25:12;;;;;;;1.90;1.80;;;28.00;55.70;28.60;96927.00;;;;5016522;28;20595;-87
2021/06/11 10:28:02;;;;;;;2.40;2.20;;;28.20;55.60;27.00;96888.00;;;;5026045;28;20208;-84
2021/06/11 10:30:54;;;;;;;2.50;2.27;;;27.90;56.30;25.80;96942.00;;;;5026144;28;20219;-86
2021/06/11 10:33:53;;;;;;;2.23;2.03;;;27.50;55.20;25.90;96938.00;;;;5027914;28;20205;-86
2021/06/11 10:36:43;;;;;;;2.53;2.33;;;26.90;57.30;25.20;96949.00;;;;5028175;28;20210;-85
2021/06/11 10:39:32;;;;;;;2.40;2.20;;;26.30;57.80;24.60;96969.00;;;;5028156;28;20296;-85
2021/06/11 10:42:20;;;;;;;1.93;1.83;;;25.70;60.60;24.00;96946.00;;;;5029881;28;20220;-85
2021/06/11 10:45:12;;;;;;;2.20;2.10;;;25.20;58.80;24.00;96935.00;;;;5026729;28;20208;-85
2021/06/11 10:48:01;;;;;;;1.50;1.40;;;24.90;59.20;24.80;96940.00;;;;5027279;28;20214;-85
2021/06/11 10:50:51;;;;;;;2.23;1.70;;;24.80;60.90;25.00;96934.00;;;;5026955;28;20207;-85
2021/06/11 10:53:42;;;;;;;3.27;2.10;;;24.90;62.00;26.00;96944.00;;;;5031291;28;20211;-85
2021/06/11 10:56:30;;;;;;;2.30;1.73;;;25.20;63.70;24.90;96941.00;;;;5032639;28;20210;-86
2021/06/11 10:59:33;;;;;;;2.23;2.03;;;25.20;61.80;24.20;96935.00;;;;5031702;28;20231;-85
2021/06/11 11:02:48;;;;;;;3.47;1.93;;;24.90;60.80;24.10;96922.00;;;;5031781;28;20299;-86
2021/06/11 11:05:42;;;;;;;2.17;1.90;;;24.70;60.30;25.10;96902.00;;;;5032502;28;20203;-87
2021/06/11 11:08:55;;;;;;;7.73;1.93;;;24.80;60.80;26.40;96869.00;;;;5031718;28;20296;-86
2021/06/11 11:11:46;;;;;;;2.53;2.23;;;25.40;61.80;26.50;96861.00;;;;5029549;28;20208;-87
2021/06/11 11:14:40;;;;;;;2.10;1.90;;;25.80;58.80;27.20;96858.00;;;;5028500;28;20224;-86
2021/06/11 11:17:29;;;;;;;2.03;1.93;;;26.30;59.10;28.30;96850.00;;;;5029486;28;20589;-86
2021/06/11 11:20:30;;;;;;;2.43;2.20;;;26.80;59.10;28.60;96852.00;;;;5029727;28;20245;-86
2021/06/11 11:23:21;;;;;;;2.33;2.13;;;27.50;58.80;28.90;96840.00;;;;5032141;28;20208;-87
2021/06/11 11:26:10;;;;;;;1.90;1.80;;;28.00;57.70;28.70;96835.00;;;;5039491;28;20220;-85
2021/06/11 11:28:59;;;;;;;2.23;2.00;;;28.30;54.30;29.70;96835.00;;;;5036070;28;20240;-86
2021/06/11 11:31:51;;;;;;;5.17;2.40;;;28.60;53.90;30.20;96826.00;;;;5024808;28;20207;-86
2021/06/11 11:34:40;;;;;;;2.47;1.80;;;29.00;53.60;30.60;96806.00;;;;5033600;28;20199;-86
2021/06/11 11:37:28;;;;;;;2.97;1.90;;;29.40;55.20;30.00;96805.00;;;;5040579;28;20204;-87
2021/06/11 11:40:17;;;;;;;2.55;1.63;;;29.50;50.80;30.50;96797.00;;;;5031825;28;20246;-86
2021/06/11 11:43:07;;;;;;;2.90;1.85;;;29.90;52.50;31.30;96791.00;;;;5035393;28;20206;-87
2021/06/11 11:45:55;;;;;;;2.25;2.10;;;30.10;51.90;30.80;96785.00;;;;5032315;28;20204;-87
2021/06/11 11:48:43;;;;;;;3.40;2.00;;;30.30;50.20;30.20;96800.00;;;;5026801;28;20256;-87
2021/06/11 11:51:32;;;;;;;2.00;1.80;;;30.40;49.40;30.60;96790.00;;;;5031316;28;20622;-86
2021/06/11 11:54:21;;;;;;;2.25;2.05;;;30.30;49.10;30.90;96795.00;;;;5030083;28;20208;-87
2021/06/11 11:57:09;;;;;;;1.85;1.75;;;30.40;50.40;31.40;96766.00;;;;5030710;28;20204;-87
2021/06/11 11:59:59;;;;;;;1.85;1.75;;;30.60;50.20;31.90;96781.00;;;;5024441;28;20228;-86
2021/06/11 12:02:47;;;;;;;1.55;1.45;;;30.90;49.60;31.80;96770.00;;;;5028753;28;20208;-87
2021/06/11 12:05:36;;;;;;;1.85;1.67;;;31.10;49.40;30.90;96754.00;;;;5025167;28;20221;-86
2021/06/11 12:08:26;;;;;;;2.35;1.60;;;30.90;47.50;31.60;96795.00;;;;5027766;28;21164;-86
2021/06/11 12:11:14;;;;;;;2.08;1.58;;;30.90;48.60;30.40;96827.00;;;;5023820;28;20208;-86
2021/06/11 12:14:06;;;;;;;1.65;1.55;;;30.70;47.70;30.20;96827.00;;;;5032867;28;20201;-86
2021/06/11 12:16:56;;;;;;;2.35;1.83;;;30.50;47.90;29.70;96807.00;;;;5030182;28;20196;-87
2021/06/11 12:19:45;;;;;;;3.30;2.20;;;30.20;46.50;30.00;96794.00;;;;5031405;28;20224;-85
2021/06/11 12:22:33;;;;;;;2.00;1.45;;;30.10;48.90;30.20;96804.00;;;;5030276;28;20220;-86
2021/06/11 12:25:22;;;;;;;2.63;1.63;;;30.00;48.70;29.50;96823.00;;;;5031578;28;20670;-85
2021/06/11 12:28:10;;;;;;;2.22;1.67;;;29.70;47.70;28.70;96757.00;;;;5030975;28;20600;-86
2021/06/11 12:31:01;;;;;;;2.08;1.92;;;29.30;47.60;30.70;96808.00;;;;5037344;28;20208;-86
2021/06/11 12:33:50;;;;;;;1.55;1.45;;;29.50;48.60;30.40;96758.00;;;;5023913;28;20220;-85
2021/06/11 12:36:39;;;;;;;1.98;1.70;;;29.70;47.00;31.90;96763.00;;;;5034447;28;20212;-86